createdAt,value
2022-08-19T00:01:30.357Z,90.24
2022-08-19T00:04:03.925Z,89.98
2022-08-19T00:06:31.312Z,90.33
2022-08-19T00:08:58.923Z,90.59
2022-08-19T00:11:26.457Z,92.29
2022-08-19T00:13:53.879Z,91.46
2022-08-19T00:16:26.329Z,91.04
2022-08-19T00:18:54.907Z,91.48
2022-08-19T00:21:22.038Z,92.30
2022-08-19T00:23:48.788Z,92.99
2022-08-19T00:26:15.801Z,93.16
2022-08-19T00:28:42.490Z,92.32
2022-08-19T00:31:10.200Z,92.43
2022-08-19T00:33:37.273Z,92.43
2022-08-19T00:36:07.927Z,92.65
2022-08-19T00:38:39.379Z,91.93
2022-08-19T00:41:07.066Z,91.83
2022-08-19T00:43:34.474Z,91.68
2022-08-19T00:46:02.412Z,91.62
2022-08-19T00:48:28.991Z,91.41
2022-08-19T00:50:56.518Z,91.40
2022-08-19T00:53:27.468Z,91.20
2022-08-19T00:55:57.416Z,90.90
2022-08-19T00:58:31.090Z,91.14
2022-08-19T01:00:57.666Z,91.95
2022-08-19T01:03:24.639Z,91.53
2022-08-19T01:05:54.405Z,92.02
2022-08-19T01:08:21.445Z,93.06
2022-08-19T01:10:57.149Z,93.30
2022-08-19T01:13:27.699Z,93.45
2022-08-19T01:16:07.796Z,94.01
2022-08-19T01:18:40.212Z,94.83
2022-08-19T01:21:17.908Z,93.49
2022-08-19T01:23:45.964Z,92.61
2022-08-19T01:26:19.135Z,91.54
2022-08-19T01:28:48.270Z,91.70
2022-08-19T01:31:26.525Z,91.90
2022-08-19T01:33:56.736Z,91.89
2022-08-19T01:36:31.107Z,92.05
2022-08-19T01:38:59.153Z,91.63
2022-08-19T01:41:26.087Z,91.78
2022-08-19T01:44:13.806Z,92.52
2022-08-19T01:46:40.804Z,91.98
2022-08-19T01:49:09.103Z,92.03
2022-08-19T01:51:38.474Z,92.11
2022-08-19T01:54:07.950Z,92.00
2022-08-19T01:56:36.518Z,90.50
2022-08-19T01:59:09.306Z,89.19
2022-08-19T02:01:36.036Z,88.24
2022-08-19T02:04:03.660Z,89.50
2022-08-19T02:06:30.659Z,89.46
2022-08-19T02:08:57.612Z,88.85
2022-08-19T02:11:36.377Z,90.76
2022-08-19T02:14:06.714Z,89.15
2022-08-19T02:16:33.758Z,89.58
2022-08-19T02:19:01.641Z,91.10
2022-08-19T02:21:29.481Z,90.24
2022-08-19T02:23:56.929Z,90.95
2022-08-19T02:26:23.517Z,91.31
2022-08-19T02:28:50.197Z,92.15
2022-08-19T02:31:21.172Z,91.99
2022-08-19T02:33:48.218Z,92.78
2022-08-19T02:36:16.506Z,92.56
2022-08-19T02:38:54.941Z,91.92
2022-08-19T02:41:33.447Z,92.19
2022-08-19T02:44:30.017Z,91.14
2022-08-19T02:46:51.778Z,91.15
2022-08-19T02:49:19.381Z,91.90
2022-08-19T02:51:47.207Z,90.68
2022-08-19T02:54:15.103Z,90.58
2022-08-19T02:56:42.763Z,90.21
2022-08-19T02:59:11.959Z,90.86
2022-08-19T03:01:40.737Z,91.01
2022-08-19T03:04:09.041Z,91.35
2022-08-19T03:06:39.310Z,91.29
2022-08-19T03:09:05.985Z,91.00
2022-08-19T03:11:34.100Z,91.02
2022-08-19T03:14:02.547Z,91.04
2022-08-19T03:16:33.534Z,91.28
2022-08-19T03:19:01.480Z,91.68
2022-08-19T03:21:30.774Z,91.77
2022-08-19T03:23:59.734Z,91.89
2022-08-19T03:26:26.569Z,92.20
2022-08-19T03:28:57.849Z,92.13
2022-08-19T03:31:44.531Z,91.66
2022-08-19T03:34:35.142Z,91.46
2022-08-19T03:37:06.881Z,90.46
2022-08-19T03:39:33.766Z,90.92
2022-08-19T03:42:32.136Z,90.71
2022-08-19T03:44:49.971Z,89.77
2022-08-19T03:47:16.794Z,89.83
2022-08-19T03:49:43.498Z,90.14
2022-08-19T03:52:10.151Z,90.47
2022-08-19T03:54:38.978Z,91.55
2022-08-19T03:57:06.021Z,91.53
2022-08-19T03:59:36.309Z,91.71
2022-08-19T04:02:09.376Z,91.32
2022-08-19T04:04:37.529Z,90.56
2022-08-19T04:07:04.343Z,91.50
2022-08-19T04:09:30.895Z,92.07
2022-08-19T04:11:58.869Z,92.83
2022-08-19T04:14:33.360Z,92.86
2022-08-19T04:17:01.175Z,93.13
2022-08-19T04:19:30.237Z,93.10
2022-08-19T04:21:56.771Z,93.21
2022-08-19T04:24:23.973Z,92.68
2022-08-19T04:26:50.981Z,93.65
2022-08-19T04:29:22.680Z,93.50
2022-08-19T04:31:50.237Z,93.02
2022-08-19T04:34:19.349Z,92.83
2022-08-19T04:36:46.333Z,93.37
2022-08-19T04:39:17.013Z,93.23
2022-08-19T04:42:03.044Z,93.03
2022-08-19T04:44:33.139Z,93.01
2022-08-19T04:47:00.494Z,93.03
2022-08-19T04:49:28.830Z,92.47
2022-08-19T04:51:55.955Z,92.83
2022-08-19T04:54:38.549Z,92.61
2022-08-19T04:57:08.504Z,92.67
2022-08-19T04:59:36.401Z,92.46
2022-08-19T05:02:03.837Z,92.12
2022-08-19T05:04:31.960Z,91.54
2022-08-19T05:07:00.040Z,92.09
2022-08-19T05:09:28.723Z,92.23
2022-08-19T05:12:16.171Z,91.99
2022-08-19T05:14:42.842Z,92.15
2022-08-19T05:17:26.732Z,92.43
2022-08-19T05:20:12.459Z,92.02
2022-08-19T05:22:39.070Z,91.85
2022-08-19T05:25:13.016Z,92.03
2022-08-19T05:27:40.235Z,92.26
2022-08-19T05:30:07.694Z,92.16
2022-08-19T05:32:34.209Z,91.76
2022-08-19T05:35:00.834Z,91.85
2022-08-19T05:37:28.458Z,91.58
2022-08-19T05:39:55.881Z,91.77
2022-08-19T05:42:24.098Z,92.01
2022-08-19T05:44:52.074Z,91.95
2022-08-19T05:47:20.805Z,91.99
2022-08-19T05:49:48.077Z,91.83
2022-08-19T05:52:19.455Z,91.65
2022-08-19T05:54:52.132Z,91.18
2022-08-19T05:57:21.544Z,90.77
2022-08-19T05:59:49.410Z,90.10
2022-08-19T06:02:20.072Z,90.64
2022-08-19T06:04:47.144Z,90.66
2022-08-19T06:07:13.786Z,90.36
2022-08-19T06:09:41.208Z,90.68
2022-08-19T06:12:10.516Z,90.31
2022-08-19T06:14:40.353Z,90.46
2022-08-19T06:17:09.256Z,89.95
2022-08-19T06:19:40.752Z,89.04
2022-08-19T06:22:08.356Z,88.93
2022-08-19T06:24:36.602Z,88.57
2022-08-19T06:27:04.206Z,87.54
2022-08-19T06:29:31.211Z,86.41
2022-08-19T06:31:59.990Z,86.45
2022-08-19T06:34:29.508Z,86.41
2022-08-19T06:36:57.006Z,85.95
2022-08-19T06:39:26.207Z,85.47
2022-08-19T06:41:59.018Z,85.72
2022-08-19T06:44:28.824Z,84.98
2022-08-19T06:46:57.050Z,85.62
2022-08-19T06:49:24.621Z,84.66
2022-08-19T06:51:51.766Z,85.06
2022-08-19T06:54:20.390Z,84.61
2022-08-19T06:56:47.759Z,84.92
2022-08-19T06:59:18.759Z,85.31
2022-08-19T07:01:49.108Z,84.23
2022-08-19T07:04:19.367Z,84.06
2022-08-19T07:06:54.863Z,83.20
2022-08-19T07:09:22.075Z,82.46
2022-08-19T07:11:50.762Z,82.48
2022-08-19T07:14:20.353Z,82.23
2022-08-19T07:16:50.070Z,81.53
2022-08-19T07:19:18.872Z,81.64
2022-08-19T07:21:47.197Z,81.47
2022-08-19T07:24:13.858Z,79.51
2022-08-19T07:26:42.798Z,80.58
2022-08-19T07:29:10.854Z,80.15
2022-08-19T07:31:38.167Z,80.11
2022-08-19T07:34:08.290Z,80.26
2022-08-19T07:36:37.751Z,79.52
2022-08-19T07:39:12.496Z,79.50
2022-08-19T07:41:39.465Z,79.12
2022-08-19T07:44:08.361Z,79.25
2022-08-19T07:46:38.279Z,78.02
2022-08-19T07:49:06.293Z,77.81
2022-08-19T07:51:36.872Z,76.78
2022-08-19T07:54:04.798Z,77.05
2022-08-19T07:56:31.386Z,77.03
2022-08-19T07:58:58.114Z,78.00
2022-08-19T08:01:27.511Z,79.58
2022-08-19T08:04:14.226Z,82.13
2022-08-19T08:07:00.154Z,79.27
2022-08-19T08:09:31.943Z,76.60
2022-08-19T08:12:32.912Z,77.52
2022-08-19T08:14:57.764Z,76.99
2022-08-19T08:17:40.689Z,74.03
2022-08-19T08:20:15.309Z,74.06
2022-08-19T08:23:07.595Z,72.08
2022-08-19T08:25:36.378Z,72.59
2022-08-19T08:28:04.091Z,70.42
2022-08-19T08:30:33.458Z,68.95
2022-08-19T08:33:00.888Z,67.87
2022-08-19T08:35:29.515Z,67.42
2022-08-19T08:37:57.395Z,65.64
2022-08-19T08:40:45.250Z,66.90
2022-08-19T08:43:32.472Z,66.84
2022-08-19T08:46:12.230Z,66.45
2022-08-19T08:49:00.821Z,65.58
2022-08-19T08:54:18.888Z,64.07
2022-08-19T08:56:46.878Z,63.88
2022-08-19T08:59:25.430Z,63.79
2022-08-19T09:01:52.000Z,62.99
2022-08-19T09:04:19.196Z,60.30
2022-08-19T09:07:34.461Z,58.94
2022-08-19T09:10:10.039Z,57.26
2022-08-19T09:12:47.424Z,57.77
2022-08-19T09:15:17.187Z,56.24
2022-08-19T09:17:43.701Z,54.79
2022-08-19T09:20:21.567Z,54.64
2022-08-19T09:22:50.151Z,53.08
2022-08-19T09:25:24.657Z,53.07
2022-08-19T09:27:55.029Z,53.14
2022-08-19T09:30:32.297Z,52.25
2022-08-19T09:32:59.843Z,52.77
2022-08-19T09:35:29.714Z,51.01
2022-08-19T09:37:59.473Z,50.76
2022-08-19T09:40:30.381Z,50.31
2022-08-19T09:42:58.714Z,49.09
2022-08-19T09:45:25.314Z,48.40
2022-08-19T09:47:54.122Z,48.37
2022-08-19T09:50:22.606Z,47.65
2022-08-19T09:52:55.116Z,47.21
2022-08-19T09:55:31.648Z,47.78
2022-08-19T09:58:01.359Z,47.91
2022-08-19T10:00:27.977Z,48.09
2022-08-19T10:02:54.481Z,48.25
2022-08-19T10:05:42.454Z,48.35
2022-08-19T10:08:13.410Z,47.59
2022-08-19T10:10:44.168Z,49.13
2022-08-19T10:13:15.905Z,51.13
2022-08-19T10:15:47.321Z,49.39
2022-08-19T10:18:15.754Z,49.45
2022-08-19T10:20:42.823Z,48.99
2022-08-19T10:23:10.317Z,48.58
2022-08-19T10:25:38.350Z,49.15
2022-08-19T10:28:10.637Z,50.83
2022-08-19T10:30:38.217Z,48.92
2022-08-19T10:33:10.846Z,48.55
2022-08-19T10:35:56.452Z,50.79
2022-08-19T10:38:31.701Z,51.34
2022-08-19T10:41:07.682Z,49.76
2022-08-19T10:43:37.031Z,47.32
2022-08-19T10:46:04.843Z,46.02
2022-08-19T10:48:36.449Z,44.09
2022-08-19T10:51:23.189Z,42.32
2022-08-19T10:53:51.288Z,43.30
2022-08-19T10:56:36.860Z,44.30
2022-08-19T10:59:04.341Z,43.84
2022-08-19T11:01:34.214Z,43.39
2022-08-19T11:04:02.499Z,42.73
2022-08-19T11:06:29.051Z,41.46
2022-08-19T11:08:55.644Z,42.46
2022-08-19T11:11:23.270Z,43.28
2022-08-19T11:13:50.937Z,44.15
2022-08-19T11:16:27.034Z,43.47
2022-08-19T11:18:59.415Z,44.89
2022-08-19T11:21:34.470Z,44.71
2022-08-19T11:24:04.230Z,45.97
2022-08-19T11:26:31.695Z,46.32
2022-08-19T11:29:00.217Z,44.58
2022-08-19T11:31:34.325Z,42.36
2022-08-19T11:34:04.141Z,42.65
2022-08-19T11:36:32.097Z,44.16
2022-08-19T11:38:58.654Z,44.73
2022-08-19T11:41:25.877Z,45.05
2022-08-19T11:43:56.062Z,46.28
2022-08-19T11:46:25.073Z,43.42
2022-08-19T11:48:52.050Z,41.46
2022-08-19T11:51:22.606Z,41.40
2022-08-19T11:53:51.355Z,40.29
2022-08-19T11:56:19.627Z,38.98
2022-08-19T11:58:46.901Z,38.36
2022-08-19T12:01:16.954Z,38.60
2022-08-19T12:03:46.045Z,39.05
2022-08-19T12:06:15.451Z,37.91
2022-08-19T12:08:43.971Z,36.89
2022-08-19T12:11:11.472Z,36.86
2022-08-19T12:13:39.776Z,36.12
2022-08-19T12:16:15.242Z,37.07
2022-08-19T12:18:44.763Z,38.83
2022-08-19T12:21:12.061Z,38.86
2022-08-19T12:23:38.960Z,37.39
2022-08-19T12:26:05.673Z,37.10
2022-08-19T12:28:32.246Z,36.24
2022-08-19T12:30:58.906Z,35.22
2022-08-19T12:33:28.694Z,35.83
2022-08-19T12:35:55.972Z,37.81
2022-08-19T12:38:25.593Z,37.72
2022-08-19T12:40:55.964Z,37.96
2022-08-19T12:43:25.533Z,38.95
2022-08-19T12:45:52.112Z,38.64
2022-08-19T12:48:34.445Z,37.16
2022-08-19T12:51:07.056Z,37.24
2022-08-19T12:53:33.583Z,37.15
2022-08-19T12:56:03.978Z,38.92
2022-08-19T12:58:35.582Z,37.53
2022-08-19T13:01:33.657Z,31.98
2022-08-19T13:04:00.759Z,33.17
2022-08-19T13:06:27.660Z,32.46
2022-08-19T13:08:59.514Z,33.95
2022-08-19T13:11:26.464Z,36.38
2022-08-19T13:13:54.624Z,35.66
2022-08-19T13:16:21.343Z,36.45
2022-08-19T13:18:48.637Z,37.06
2022-08-19T13:21:15.694Z,37.40
2022-08-19T13:23:42.382Z,37.83
2022-08-19T13:26:10.515Z,37.72
2022-08-19T13:28:55.590Z,37.01
2022-08-19T13:31:42.679Z,36.09
2022-08-19T13:34:10.193Z,34.96
2022-08-19T13:36:37.913Z,34.89
2022-08-19T13:39:06.733Z,35.74
2022-08-19T13:41:34.645Z,35.21
2022-08-19T13:44:02.691Z,36.17
2022-08-19T13:46:30.261Z,36.43
2022-08-19T13:48:57.755Z,36.74
2022-08-19T13:51:24.540Z,36.29
2022-08-19T13:53:51.688Z,36.25
2022-08-19T13:56:24.140Z,35.66
2022-08-19T13:58:53.075Z,36.20
2022-08-19T14:01:24.850Z,36.68
2022-08-19T14:03:51.811Z,37.10
2022-08-19T14:06:18.347Z,37.47
2022-08-19T14:08:46.445Z,38.86
2022-08-19T14:11:13.193Z,38.95
2022-08-19T14:13:39.877Z,37.47
2022-08-19T14:16:14.754Z,35.69
2022-08-19T14:18:42.471Z,34.30
2022-08-19T14:21:16.062Z,34.31
2022-08-19T14:23:42.580Z,33.88
2022-08-19T14:26:12.549Z,32.88
2022-08-19T14:28:41.813Z,34.34
2022-08-19T14:31:09.966Z,32.85
2022-08-19T14:33:36.496Z,31.63
2022-08-19T14:36:03.491Z,31.63
2022-08-19T14:38:32.459Z,31.73
2022-08-19T14:41:17.244Z,31.58
2022-08-19T14:43:49.340Z,32.19
2022-08-19T14:46:20.660Z,34.08
2022-08-19T14:48:48.294Z,33.75
2022-08-19T14:51:20.073Z,34.06
2022-08-19T14:53:49.316Z,34.78
2022-08-19T14:56:19.486Z,36.08
2022-08-19T14:58:46.425Z,36.24
2022-08-19T15:01:13.661Z,36.71
2022-08-19T15:03:41.653Z,36.00
2022-08-19T15:06:09.062Z,35.88
2022-08-19T15:08:41.461Z,33.15
2022-08-19T15:11:18.554Z,34.45
2022-08-19T15:13:47.426Z,35.57
2022-08-19T15:16:18.254Z,32.75
2022-08-19T15:18:46.977Z,32.43
2022-08-19T15:21:27.242Z,29.75
2022-08-19T15:23:56.582Z,26.82
2022-08-19T15:26:23.204Z,25.76
2022-08-19T15:28:49.913Z,26.32
2022-08-19T15:31:25.221Z,27.31
2022-08-19T15:33:58.539Z,27.70
2022-08-19T15:36:27.065Z,30.00
2022-08-19T15:38:54.275Z,31.15
2022-08-19T15:41:23.902Z,31.61
2022-08-19T15:44:14.971Z,33.43
2022-08-19T15:46:45.314Z,33.43
2022-08-19T15:49:14.274Z,33.93
2022-08-19T15:51:43.752Z,35.01
2022-08-19T15:54:14.480Z,34.32
2022-08-19T15:57:00.023Z,33.58
2022-08-19T15:59:47.464Z,34.41
2022-08-19T16:02:34.250Z,34.52
2022-08-19T16:05:19.638Z,34.00
2022-08-19T16:07:47.562Z,31.83
2022-08-19T16:10:26.138Z,31.71
2022-08-19T16:12:54.994Z,30.65
2022-08-19T16:15:21.718Z,32.35
2022-08-19T16:17:56.473Z,33.37
2022-08-19T16:20:26.317Z,34.55
2022-08-19T16:22:54.361Z,35.03
2022-08-19T16:25:26.751Z,35.32
2022-08-19T16:28:07.404Z,36.67
2022-08-19T16:30:37.010Z,36.27
2022-08-19T16:33:03.554Z,36.52
2022-08-19T16:35:30.059Z,37.78
2022-08-19T16:37:56.864Z,38.11
2022-08-19T16:40:23.901Z,39.18
2022-08-19T16:42:51.401Z,38.62
2022-08-19T16:45:19.532Z,39.56
2022-08-19T16:47:46.043Z,39.53
2022-08-19T16:50:12.673Z,39.41
2022-08-19T16:52:39.244Z,37.83
2022-08-19T16:55:08.424Z,38.42
2022-08-19T16:57:35.042Z,37.19
2022-08-19T17:00:08.731Z,36.12
2022-08-19T17:02:35.309Z,35.38
2022-08-19T17:05:02.040Z,35.28
2022-08-19T17:07:33.017Z,35.95
2022-08-19T17:10:00.819Z,34.88
2022-08-19T17:12:32.218Z,35.46
2022-08-19T17:15:01.239Z,36.89
2022-08-19T17:17:29.556Z,36.40
2022-08-19T17:19:57.404Z,37.41
2022-08-19T17:22:24.048Z,37.97
2022-08-19T17:24:50.554Z,38.46
2022-08-19T17:27:17.138Z,39.47
2022-08-19T17:29:46.891Z,38.72
2022-08-19T17:32:14.501Z,37.38
2022-08-19T17:34:41.264Z,36.75
2022-08-19T17:37:07.802Z,36.89
2022-08-19T17:39:37.172Z,35.75
2022-08-19T17:42:08.262Z,36.46
2022-08-19T17:44:36.662Z,37.59
2022-08-19T17:47:04.306Z,36.98
2022-08-19T17:49:31.016Z,37.25
2022-08-19T17:52:00.664Z,38.04
2022-08-19T17:54:31.917Z,38.75
2022-08-19T17:57:01.311Z,39.08
2022-08-19T17:59:30.279Z,40.11
2022-08-19T18:01:57.614Z,41.04
2022-08-19T18:04:26.279Z,40.72
2022-08-19T18:06:55.154Z,40.61
2022-08-19T18:09:27.521Z,41.09
2022-08-19T18:11:57.113Z,41.39
2022-08-19T18:14:33.273Z,41.99
2022-08-19T18:17:10.273Z,42.60
2022-08-19T18:19:43.432Z,42.62
2022-08-19T18:22:27.545Z,42.69
2022-08-19T18:24:56.456Z,42.97
2022-08-19T18:27:24.000Z,43.40
2022-08-19T18:29:50.699Z,42.96
2022-08-19T18:32:23.529Z,43.81
2022-08-19T18:34:50.869Z,43.91
2022-08-19T18:37:17.385Z,43.95
2022-08-19T18:40:03.045Z,44.31
2022-08-19T18:42:48.354Z,44.77
2022-08-19T18:45:33.441Z,44.75
2022-08-19T18:48:26.346Z,45.52
2022-08-19T18:50:56.621Z,45.62
2022-08-19T18:53:23.318Z,45.61
2022-08-19T18:55:51.916Z,45.88
2022-08-19T18:58:18.553Z,46.04
2022-08-19T19:00:45.337Z,46.58
2022-08-19T19:03:11.858Z,47.46
2022-08-19T19:05:39.973Z,47.40
2022-08-19T19:08:07.592Z,47.59
2022-08-19T19:10:36.269Z,48.12
2022-08-19T19:13:02.993Z,48.08
2022-08-19T19:15:29.541Z,48.16
2022-08-19T19:17:56.341Z,48.41
2022-08-19T19:20:35.167Z,48.78
2022-08-19T19:23:03.862Z,48.87
2022-08-19T19:25:44.737Z,48.71
2022-08-19T19:28:17.734Z,48.76
2022-08-19T19:30:44.327Z,48.93
2022-08-19T19:33:11.266Z,49.56
2022-08-19T19:35:38.011Z,49.59
2022-08-19T19:38:11.679Z,50.12
2022-08-19T19:40:38.178Z,50.22
2022-08-19T19:43:06.205Z,51.18
2022-08-19T19:45:33.514Z,50.45
2022-08-19T19:48:00.660Z,50.66
2022-08-19T19:50:30.198Z,51.32
2022-08-19T19:52:57.898Z,52.49
2022-08-19T19:55:26.607Z,52.71
2022-08-19T19:57:54.328Z,52.77
2022-08-19T20:00:22.087Z,53.66
2022-08-19T20:02:50.854Z,53.95
2022-08-19T20:05:20.904Z,53.72
2022-08-19T20:08:06.818Z,54.78
2022-08-19T20:10:33.516Z,55.16
2022-08-19T20:13:04.880Z,55.56
2022-08-19T20:15:32.483Z,55.88
2022-08-19T20:18:00.180Z,55.88
2022-08-19T20:20:27.083Z,55.63
2022-08-19T20:22:54.340Z,55.85
2022-08-19T20:25:23.566Z,56.93
2022-08-19T20:27:51.210Z,56.81
2022-08-19T20:30:20.985Z,57.04
2022-08-19T20:32:49.230Z,57.91
2022-08-19T20:35:21.161Z,57.93
2022-08-19T20:37:48.614Z,58.24
2022-08-19T20:40:20.317Z,58.33
2022-08-19T20:42:48.492Z,58.60
2022-08-19T20:45:27.977Z,58.96
2022-08-19T20:48:02.819Z,57.90
2022-08-19T20:50:30.600Z,58.60
2022-08-19T20:52:57.402Z,58.56
2022-08-19T20:55:24.371Z,57.20
2022-08-19T20:57:51.626Z,57.59
2022-08-19T21:00:18.962Z,57.33
2022-08-19T21:02:46.907Z,57.24
2022-08-19T21:05:13.865Z,57.59
2022-08-19T21:07:40.773Z,57.89
2022-08-19T21:10:08.027Z,57.82
2022-08-19T21:12:34.783Z,58.02
2022-08-19T21:15:01.376Z,59.13
2022-08-19T21:17:27.998Z,58.81
2022-08-19T21:19:54.622Z,58.83
2022-08-19T21:22:21.156Z,58.90
2022-08-19T21:24:47.703Z,59.54
2022-08-19T21:27:14.405Z,59.13
2022-08-19T21:29:42.243Z,60.16
2022-08-19T21:32:14.339Z,60.53
2022-08-19T21:34:43.932Z,60.15
2022-08-19T21:37:19.926Z,60.16
2022-08-19T21:39:52.090Z,61.04
2022-08-19T21:42:18.785Z,60.28
2022-08-19T21:44:45.958Z,60.35
2022-08-19T21:47:12.834Z,60.77
2022-08-19T21:49:39.498Z,60.74
2022-08-19T21:52:06.615Z,61.01
2022-08-19T21:54:38.177Z,60.73
2022-08-19T21:57:07.043Z,60.27
2022-08-19T21:59:36.913Z,60.71
2022-08-19T22:02:19.065Z,59.92
2022-08-19T22:04:47.048Z,60.41
2022-08-19T22:07:14.422Z,59.85
2022-08-19T22:09:42.557Z,59.93
2022-08-19T22:12:11.597Z,60.11
2022-08-19T22:14:39.280Z,59.75
2022-08-19T22:17:06.198Z,59.69
2022-08-19T22:19:33.340Z,60.13
2022-08-19T22:22:00.728Z,60.44
2022-08-19T22:24:27.360Z,60.63
2022-08-19T22:26:53.885Z,60.83
2022-08-19T22:29:20.555Z,61.42
2022-08-19T22:32:22.991Z,61.13
2022-08-19T22:34:48.366Z,62.48
2022-08-19T22:37:14.971Z,62.99
2022-08-19T22:39:41.700Z,62.60
2022-08-19T22:42:08.594Z,63.93
2022-08-19T22:44:35.114Z,63.76
2022-08-19T22:47:02.237Z,63.72
2022-08-19T22:49:28.834Z,64.36
2022-08-19T22:52:13.896Z,64.52
2022-08-19T22:54:40.413Z,65.29
2022-08-19T22:57:06.939Z,65.59
2022-08-19T22:59:33.510Z,65.67
2022-08-19T23:02:00.124Z,66.02
2022-08-19T23:04:26.640Z,65.71
2022-08-19T23:06:53.559Z,65.76
2022-08-19T23:09:20.142Z,65.71
2022-08-19T23:11:50.329Z,65.55
2022-08-19T23:14:18.533Z,65.89
2022-08-19T23:16:50.753Z,66.23
2022-08-19T23:19:18.045Z,66.65
2022-08-19T23:21:44.579Z,66.73
2022-08-19T23:24:11.337Z,65.42
2022-08-19T23:26:38.862Z,64.66
2022-08-19T23:29:24.409Z,63.94
2022-08-19T23:31:51.310Z,65.20
2022-08-19T23:34:18.030Z,65.40
2022-08-19T23:36:44.533Z,65.56
2022-08-19T23:39:11.181Z,66.36
2022-08-19T23:41:38.655Z,66.58
2022-08-19T23:44:06.536Z,66.32
2022-08-19T23:46:54.702Z,65.71
2022-08-19T23:49:22.817Z,66.21
2022-08-19T23:51:49.313Z,66.45
2022-08-19T23:54:15.822Z,65.82
2022-08-19T23:56:42.364Z,66.62
2022-08-19T23:59:08.986Z,67.82
